createdAt,value
2023-07-12T00:01:19.780Z,14.52
2023-07-12T00:03:47.105Z,14.52
2023-07-12T00:06:17.657Z,14.51
2023-07-12T00:08:44.946Z,14.47
2023-07-12T00:11:20.565Z,14.45
2023-07-12T00:13:48.525Z,14.45
2023-07-12T00:16:22.747Z,14.41
2023-07-12T00:18:50.319Z,14.43
2023-07-12T00:21:26.578Z,14.41
2023-07-12T00:23:55.185Z,14.41
2023-07-12T00:26:26.215Z,14.41
2023-07-12T00:28:54.065Z,14.39
2023-07-12T00:31:21.889Z,14.34
2023-07-12T00:33:48.992Z,14.33
2023-07-12T00:36:24.619Z,14.35
2023-07-12T00:38:52.193Z,14.36
2023-07-12T00:41:50.810Z,14.31
2023-07-12T00:44:23.172Z,14.29
2023-07-12T00:46:53.503Z,14.24
2023-07-12T00:49:20.784Z,14.22
2023-07-12T00:52:13.336Z,14.24
2023-07-12T00:55:02.720Z,14.20
2023-07-12T00:57:31.751Z,14.20
2023-07-12T01:00:12.558Z,14.19
2023-07-12T01:02:41.565Z,14.18
2023-07-12T01:05:09.892Z,14.12
2023-07-12T01:07:37.132Z,14.08
2023-07-12T01:10:04.494Z,14.03
2023-07-12T01:12:32.134Z,13.89
2023-07-12T01:14:59.099Z,13.74
2023-07-12T01:17:27.514Z,13.61
2023-07-12T01:19:54.465Z,13.51
2023-07-12T01:22:21.516Z,13.42
2023-07-12T01:24:48.607Z,13.38
2023-07-12T01:27:19.289Z,13.34
2023-07-12T01:29:47.643Z,13.27
2023-07-12T01:32:15.038Z,13.28
2023-07-12T01:34:46.234Z,13.24
2023-07-12T01:37:14.360Z,13.25
2023-07-12T01:39:41.672Z,13.29
2023-07-12T01:42:10.784Z,13.31
2023-07-12T01:44:37.917Z,13.31
2023-07-12T01:47:04.963Z,13.29
2023-07-12T01:49:33.833Z,13.31
2023-07-12T01:52:00.759Z,13.40
2023-07-12T01:54:27.683Z,13.47
2023-07-12T01:56:54.584Z,13.48
2023-07-12T01:59:21.579Z,13.48
2023-07-12T02:01:48.793Z,13.45
2023-07-12T02:04:15.724Z,13.49
2023-07-12T02:06:43.203Z,13.53
2023-07-12T02:09:10.167Z,13.56
2023-07-12T02:11:37.087Z,13.63
2023-07-12T02:14:04.468Z,13.69
2023-07-12T02:16:31.577Z,13.73
2023-07-12T02:18:58.456Z,13.81
2023-07-12T02:21:25.477Z,13.82
2023-07-12T02:23:54.223Z,13.83
2023-07-12T02:26:21.227Z,13.86
2023-07-12T02:28:48.272Z,13.89
2023-07-12T02:31:19.596Z,13.83
2023-07-12T02:33:47.806Z,13.68
2023-07-12T02:36:14.890Z,13.58
2023-07-12T02:38:41.895Z,13.51
2023-07-12T02:41:09.559Z,13.39
2023-07-12T02:43:36.810Z,13.39
2023-07-12T02:46:04.470Z,13.42
2023-07-12T02:48:31.545Z,13.52
2023-07-12T02:50:58.744Z,13.62
2023-07-12T02:53:25.668Z,13.72
2023-07-12T02:55:52.810Z,13.78
2023-07-12T02:58:19.900Z,13.76
2023-07-12T03:00:47.790Z,13.81
2023-07-12T03:03:15.321Z,14.04
2023-07-12T03:05:42.513Z,14.40
2023-07-12T03:08:09.571Z,14.88
2023-07-12T03:10:38.691Z,15.53
2023-07-12T03:13:05.909Z,16.21
2023-07-12T03:15:35.318Z,16.79
2023-07-12T03:18:02.572Z,17.20
2023-07-12T03:20:29.472Z,17.48
2023-07-12T03:22:56.431Z,17.75
2023-07-12T03:25:23.579Z,18.01
2023-07-12T03:27:51.952Z,18.39
2023-07-12T03:30:19.127Z,18.89
2023-07-12T03:32:46.174Z,19.28
2023-07-12T03:35:13.587Z,19.79
2023-07-12T03:37:40.573Z,20.28
2023-07-12T03:40:09.002Z,20.63
2023-07-12T03:42:35.981Z,20.90
2023-07-12T03:45:03.505Z,20.88
2023-07-12T03:47:30.769Z,20.67
2023-07-12T03:49:57.890Z,20.60
2023-07-12T03:52:24.801Z,20.69
2023-07-12T03:54:51.833Z,21.08
2023-07-12T03:57:18.714Z,21.72
2023-07-12T03:59:45.811Z,22.33
2023-07-12T04:02:12.916Z,22.86
2023-07-12T04:04:39.813Z,23.31
2023-07-12T04:07:07.105Z,23.50
2023-07-12T04:09:34.111Z,23.39
2023-07-12T04:12:01.051Z,23.44
2023-07-12T04:14:27.961Z,23.73
2023-07-12T04:16:55.160Z,24.20
2023-07-12T04:19:22.508Z,24.65
2023-07-12T04:21:52.735Z,24.90
2023-07-12T04:24:19.757Z,25.17
2023-07-12T04:26:49.907Z,25.21
2023-07-12T04:29:17.105Z,25.47
2023-07-12T04:31:44.064Z,25.68
2023-07-12T04:34:12.701Z,25.84
2023-07-12T04:36:41.203Z,25.90
2023-07-12T04:39:09.321Z,25.94
2023-07-12T04:41:36.331Z,26.16
2023-07-12T04:44:04.062Z,26.50
2023-07-12T04:46:31.735Z,26.60
2023-07-12T04:48:58.694Z,26.55
2023-07-12T04:51:25.676Z,26.59
2023-07-12T04:53:52.558Z,26.84
2023-07-12T04:56:19.653Z,26.66
2023-07-12T04:58:46.505Z,26.17
2023-07-12T05:01:14.657Z,25.63
2023-07-12T05:03:41.688Z,25.67
2023-07-12T05:06:21.750Z,25.82
2023-07-12T05:08:50.223Z,26.02
2023-07-12T05:11:17.194Z,25.96
2023-07-12T05:13:44.693Z,26.08
2023-07-12T05:16:15.075Z,26.09
2023-07-12T05:18:42.112Z,25.98
2023-07-12T05:21:10.297Z,25.83
2023-07-12T05:23:38.302Z,25.69
2023-07-12T05:26:05.343Z,25.52
2023-07-12T05:28:32.236Z,25.46
2023-07-12T05:30:59.299Z,25.59
2023-07-12T05:33:26.351Z,25.79
2023-07-12T05:35:53.295Z,26.00
2023-07-12T05:38:20.353Z,26.15
2023-07-12T05:40:47.320Z,25.66
2023-07-12T05:43:15.085Z,24.84
2023-07-12T05:45:43.796Z,24.26
2023-07-12T05:48:10.770Z,23.82
2023-07-12T05:50:37.986Z,23.63
2023-07-12T05:53:04.988Z,23.68
2023-07-12T05:55:32.696Z,23.68
2023-07-12T05:58:01.696Z,23.58
2023-07-12T06:00:29.977Z,23.71
2023-07-12T06:02:57.392Z,23.74
2023-07-12T06:05:24.562Z,23.61
2023-07-12T06:07:52.213Z,23.57
2023-07-12T06:10:19.528Z,23.65
2023-07-12T06:12:46.744Z,23.77
2023-07-12T06:15:13.798Z,24.00
2023-07-12T06:17:40.855Z,24.21
2023-07-12T06:20:09.203Z,24.30
2023-07-12T06:22:36.181Z,24.36
2023-07-12T06:25:03.215Z,24.53
2023-07-12T06:27:30.291Z,24.73
2023-07-12T06:29:57.292Z,24.84
2023-07-12T06:32:24.331Z,24.85
2023-07-12T06:34:51.197Z,24.84
2023-07-12T06:37:18.307Z,24.99
2023-07-12T06:39:45.179Z,25.16
2023-07-12T06:42:12.137Z,25.03
2023-07-12T06:44:39.824Z,25.01
2023-07-12T06:47:07.019Z,24.92
2023-07-12T06:49:34.022Z,24.82
2023-07-12T06:52:01.114Z,24.91
2023-07-12T06:54:28.078Z,24.88
2023-07-12T06:56:55.118Z,24.93
2023-07-12T06:59:22.939Z,24.86
2023-07-12T07:01:49.874Z,24.86
2023-07-12T07:04:17.216Z,24.86
2023-07-12T07:06:44.267Z,24.95
2023-07-12T07:09:11.743Z,25.04
2023-07-12T07:11:38.957Z,25.09
2023-07-12T07:14:06.000Z,25.17
2023-07-12T07:16:33.366Z,25.29
2023-07-12T07:19:00.588Z,25.34
2023-07-12T07:21:27.856Z,25.41
2023-07-12T07:23:54.903Z,25.41
2023-07-12T07:26:21.864Z,25.46
2023-07-12T07:28:49.000Z,25.59
2023-07-12T07:31:15.959Z,25.67
2023-07-12T07:33:43.180Z,25.71
2023-07-12T07:36:12.941Z,25.64
2023-07-12T07:38:40.026Z,25.61
2023-07-12T07:41:10.601Z,25.73
2023-07-12T07:43:38.251Z,25.96
2023-07-12T07:46:05.519Z,26.01
2023-07-12T07:48:32.537Z,26.03
2023-07-12T07:50:59.629Z,26.10
2023-07-12T07:53:26.485Z,26.16
2023-07-12T07:55:53.905Z,26.19
2023-07-12T07:58:22.082Z,26.17
2023-07-12T08:00:49.617Z,26.22
2023-07-12T08:03:16.739Z,26.35
2023-07-12T08:05:44.034Z,26.48
2023-07-12T08:08:10.970Z,26.63
2023-07-12T08:10:38.224Z,26.65
2023-07-12T08:13:05.562Z,26.62
2023-07-12T08:15:32.821Z,26.77
2023-07-12T08:17:59.865Z,26.82
2023-07-12T08:20:27.080Z,26.83
2023-07-12T08:22:54.169Z,26.90
2023-07-12T08:25:21.150Z,27.04
2023-07-12T08:27:48.137Z,27.01
2023-07-12T08:30:15.377Z,26.81
2023-07-12T08:32:42.414Z,26.70
2023-07-12T08:35:11.555Z,26.60
2023-07-12T08:37:39.120Z,26.46
2023-07-12T08:40:07.105Z,26.52
2023-07-12T08:42:40.636Z,26.58
2023-07-12T08:45:30.481Z,26.62
2023-07-12T08:48:01.758Z,26.79
2023-07-12T08:50:40.397Z,26.90
2023-07-12T08:53:12.361Z,27.00
2023-07-12T08:55:39.493Z,27.17
2023-07-12T08:58:34.382Z,27.45
2023-07-12T09:01:10.652Z,27.57
2023-07-12T09:03:37.833Z,27.65
2023-07-12T09:06:11.872Z,27.67
2023-07-12T09:08:41.132Z,27.66
2023-07-12T09:11:16.853Z,27.59
2023-07-12T09:13:47.411Z,27.63
2023-07-12T09:16:33.494Z,27.65
2023-07-12T09:19:12.670Z,27.58
2023-07-12T09:21:40.233Z,27.57
2023-07-12T09:24:15.438Z,27.72
2023-07-12T09:26:43.307Z,28.01
2023-07-12T09:29:29.645Z,28.18
2023-07-12T09:32:01.464Z,28.16
2023-07-12T09:34:36.984Z,28.14
2023-07-12T09:37:04.305Z,28.10
2023-07-12T09:39:31.304Z,28.05
2023-07-12T09:42:01.115Z,28.11
2023-07-12T09:44:28.833Z,28.16
2023-07-12T09:47:26.479Z,28.07
2023-07-12T09:50:01.617Z,28.42
2023-07-12T09:52:35.467Z,28.73
2023-07-12T09:55:13.164Z,28.56
2023-07-12T09:58:19.987Z,28.48
2023-07-12T10:01:04.523Z,28.45
2023-07-12T10:03:52.382Z,28.52
2023-07-12T10:06:34.102Z,28.42
2023-07-12T10:09:11.813Z,28.28
2023-07-12T10:12:07.382Z,28.20
2023-07-12T10:14:37.168Z,28.14
2023-07-12T10:17:04.617Z,28.13
2023-07-12T10:19:34.751Z,28.04
2023-07-12T10:22:04.437Z,28.00
2023-07-12T10:24:43.745Z,27.96
2023-07-12T10:27:33.000Z,27.72
2023-07-12T10:30:05.601Z,27.56
2023-07-12T10:32:38.029Z,27.33
2023-07-12T10:35:44.965Z,27.13
2023-07-12T10:38:19.840Z,26.93
2023-07-12T10:41:08.692Z,26.78
2023-07-12T10:43:46.079Z,26.64
2023-07-12T10:46:31.857Z,26.49
2023-07-12T10:48:59.342Z,26.34
2023-07-12T10:51:36.593Z,26.03
2023-07-12T10:54:05.059Z,25.75
2023-07-12T10:56:38.803Z,25.57
2023-07-12T10:59:39.922Z,25.41
2023-07-12T11:02:33.316Z,25.23
2023-07-12T11:05:00.633Z,25.06
2023-07-12T11:07:30.731Z,24.96
2023-07-12T11:10:16.936Z,24.94
2023-07-12T11:12:51.034Z,24.96
2023-07-12T11:15:24.266Z,24.99
2023-07-12T11:18:26.889Z,24.96
2023-07-12T11:21:01.129Z,24.95
2023-07-12T11:23:50.281Z,24.95
2023-07-12T11:26:28.164Z,25.03
2023-07-12T11:29:29.224Z,24.98
2023-07-12T11:32:22.269Z,24.97
2023-07-12T11:34:49.783Z,24.96
2023-07-12T11:37:22.918Z,24.93
2023-07-12T11:39:49.959Z,24.93
2023-07-12T11:42:28.881Z,24.99
2023-07-12T11:45:06.735Z,25.00
2023-07-12T11:47:34.537Z,24.96
2023-07-12T11:50:02.128Z,24.85
2023-07-12T11:52:29.544Z,24.74
2023-07-12T11:54:56.534Z,24.59
2023-07-12T11:57:23.580Z,24.41
2023-07-12T11:59:53.585Z,24.26
2023-07-12T12:02:22.650Z,24.07
2023-07-12T12:04:57.758Z,23.83
2023-07-12T12:07:37.870Z,23.47
2023-07-12T12:10:06.937Z,23.45
2023-07-12T12:12:34.785Z,23.58
2023-07-12T12:15:02.460Z,23.73
2023-07-12T12:17:37.267Z,23.87
2023-07-12T12:20:15.468Z,24.01
2023-07-12T12:22:46.075Z,24.13
2023-07-12T12:25:21.736Z,24.18
2023-07-12T12:27:50.110Z,24.20
2023-07-12T12:30:27.897Z,24.21
2023-07-12T12:33:06.684Z,24.21
2023-07-12T12:35:47.551Z,24.18
2023-07-12T12:38:24.499Z,24.07
2023-07-12T12:40:57.618Z,24.02
2023-07-12T12:43:25.822Z,24.01
2023-07-12T12:46:06.466Z,24.00
2023-07-12T12:53:48.367Z,23.73
2023-07-12T13:01:16.229Z,23.23
2023-07-12T13:06:38.460Z,22.31
2023-07-12T13:12:52.978Z,21.83
2023-07-12T13:17:53.406Z,21.35
2023-07-12T13:19:53.153Z,21.15
2023-07-12T13:22:24.031Z,21.09
2023-07-12T13:24:55.945Z,20.95
2023-07-12T13:27:38.443Z,20.81
2023-07-12T13:30:12.453Z,20.69
2023-07-12T13:32:40.127Z,20.62
2023-07-12T13:37:43.062Z,20.47
2023-07-12T13:40:20.383Z,20.37
2023-07-12T13:42:57.727Z,20.33
2023-07-12T13:45:26.045Z,20.32
2023-07-12T13:47:54.143Z,20.47
2023-07-12T13:50:22.237Z,20.90
2023-07-12T13:52:49.235Z,21.23
2023-07-12T13:55:19.193Z,21.55
2023-07-12T13:57:47.870Z,21.89
2023-07-12T14:00:23.602Z,22.19
2023-07-12T14:03:05.783Z,22.45
2023-07-12T14:10:34.603Z,22.75
2023-07-12T14:13:01.520Z,22.67
2023-07-12T14:15:28.662Z,22.79
2023-07-12T14:17:56.725Z,22.93
2023-07-12T14:20:25.044Z,23.04
2023-07-12T14:22:52.052Z,23.18
2023-07-12T14:25:21.125Z,23.24
2023-07-12T14:27:50.031Z,23.35
2023-07-12T14:32:49.758Z,23.36
2023-07-12T14:35:20.322Z,23.32
2023-07-12T14:37:47.513Z,23.25
2023-07-12T14:40:16.633Z,23.22
2023-07-12T14:42:43.966Z,23.20
2023-07-12T14:45:16.217Z,23.19
2023-07-12T14:47:43.586Z,23.16
2023-07-12T14:50:13.662Z,23.08
2023-07-12T14:52:41.105Z,23.04
2023-07-12T14:55:13.910Z,23.00
2023-07-12T14:58:08.546Z,22.96
2023-07-12T15:00:28.702Z,22.93
2023-07-12T15:02:58.651Z,22.91
2023-07-12T15:05:28.119Z,22.96
2023-07-12T15:07:55.211Z,23.01
2023-07-12T15:10:22.295Z,23.11
2023-07-12T15:13:00.140Z,23.14
2023-07-12T15:15:30.111Z,23.23
2023-07-12T15:18:20.857Z,23.34
2023-07-12T15:20:51.184Z,23.48
2023-07-12T15:23:21.018Z,23.76
2023-07-12T15:25:48.682Z,24.00
2023-07-12T15:28:16.975Z,24.24
2023-07-12T15:30:48.246Z,24.45
2023-07-12T15:33:21.746Z,24.55
2023-07-12T15:35:50.708Z,24.48
2023-07-12T15:38:18.079Z,24.22
2023-07-12T15:40:57.302Z,24.03
2023-07-12T15:43:36.056Z,24.11
2023-07-12T15:46:04.728Z,24.29
2023-07-12T15:48:34.242Z,24.38
2023-07-12T15:51:20.136Z,24.33
2023-07-12T15:53:50.962Z,24.27
2023-07-12T15:56:20.635Z,24.22
2023-07-12T15:58:48.215Z,24.20
2023-07-12T16:01:22.904Z,24.14
2023-07-12T16:03:50.640Z,24.08
2023-07-12T16:06:18.059Z,24.01
2023-07-12T16:08:45.039Z,23.94
2023-07-12T16:11:37.228Z,23.86
2023-07-12T16:14:19.581Z,23.79
2023-07-12T16:16:46.789Z,23.67
2023-07-12T16:19:16.020Z,23.55
2023-07-12T16:21:43.115Z,23.50
2023-07-12T16:24:11.954Z,23.43
2023-07-12T16:26:40.039Z,23.43
2023-07-12T16:29:10.605Z,23.53
2023-07-12T16:31:47.019Z,23.61
2023-07-12T16:34:19.788Z,23.63
2023-07-12T16:36:48.868Z,23.67
2023-07-12T16:39:16.591Z,23.69
2023-07-12T16:41:44.370Z,23.72
2023-07-12T16:44:17.728Z,23.68
2023-07-12T16:46:45.941Z,23.53
2023-07-12T16:49:13.818Z,23.54
2023-07-12T16:52:01.514Z,23.60
2023-07-12T16:54:29.840Z,23.63
2023-07-12T16:56:57.003Z,23.46
2023-07-12T16:59:25.495Z,23.31
2023-07-12T17:01:53.778Z,23.18
2023-07-12T17:04:21.817Z,23.07
2023-07-12T17:06:48.755Z,22.98
2023-07-12T17:09:21.392Z,22.84
2023-07-12T17:11:49.059Z,22.73
2023-07-12T17:14:16.730Z,22.64
2023-07-12T17:16:44.390Z,22.57
2023-07-12T17:19:12.220Z,22.46
2023-07-12T17:21:39.317Z,22.38
2023-07-12T17:24:14.050Z,22.30
2023-07-12T17:26:41.948Z,22.21
2023-07-12T17:29:10.019Z,22.11
2023-07-12T17:31:39.694Z,22.02
2023-07-12T17:34:22.767Z,21.90
2023-07-12T17:36:50.354Z,21.84
2023-07-12T17:39:17.987Z,21.78
2023-07-12T17:41:45.676Z,21.69
2023-07-12T17:44:20.895Z,21.62
2023-07-12T17:46:50.370Z,21.58
2023-07-12T17:49:17.309Z,21.51
2023-07-12T17:51:44.503Z,21.41
2023-07-12T17:54:12.710Z,21.34
2023-07-12T17:56:39.916Z,21.26
2023-07-12T17:59:06.897Z,21.21
2023-07-12T18:01:34.180Z,21.15
2023-07-12T18:04:01.838Z,21.08
2023-07-12T18:06:30.584Z,21.04
2023-07-12T18:08:57.665Z,20.96
2023-07-12T18:11:31.355Z,20.87
2023-07-12T18:14:01.100Z,20.81
2023-07-12T18:16:30.118Z,20.76
2023-07-12T18:18:57.439Z,20.70
2023-07-12T18:21:34.263Z,20.61
2023-07-12T18:24:03.291Z,20.55
2023-07-12T18:26:30.793Z,20.49
2023-07-12T18:28:58.282Z,20.43
2023-07-12T18:31:34.771Z,20.32
2023-07-12T18:34:03.313Z,20.27
2023-07-12T18:36:34.276Z,20.21
2023-07-12T18:39:06.333Z,20.13
2023-07-12T18:41:33.591Z,20.09
2023-07-12T18:44:00.773Z,20.03
2023-07-12T18:46:27.866Z,19.97
2023-07-12T18:48:55.078Z,19.87
2023-07-12T18:51:28.413Z,19.78
2023-07-12T18:53:55.550Z,19.76
2023-07-12T18:56:26.382Z,19.69
2023-07-12T18:58:54.523Z,19.60
2023-07-12T19:01:27.099Z,19.53
2023-07-12T19:03:54.193Z,19.47
2023-07-12T19:06:24.831Z,19.38
2023-07-12T19:08:52.043Z,19.27
2023-07-12T19:11:30.665Z,19.20
2023-07-12T19:13:57.697Z,19.13
2023-07-12T19:16:25.079Z,19.06
2023-07-12T19:18:52.394Z,19.01
2023-07-12T19:21:25.428Z,18.91
2023-07-12T19:23:53.607Z,18.82
2023-07-12T19:26:21.924Z,18.73
2023-07-12T19:28:49.107Z,18.63
2023-07-12T19:31:39.221Z,18.53
2023-07-12T19:34:11.906Z,18.45
2023-07-12T19:36:41.991Z,18.38
2023-07-12T19:39:11.148Z,18.32
2023-07-12T19:41:38.472Z,18.25
2023-07-12T19:44:08.652Z,18.19
2023-07-12T19:46:36.639Z,18.13
2023-07-12T19:49:07.915Z,18.06
2023-07-12T19:51:38.970Z,18.03
2023-07-12T19:54:15.756Z,18.01
2023-07-12T19:56:44.360Z,17.98
2023-07-12T19:59:11.642Z,17.95
2023-07-12T20:01:39.588Z,17.91
2023-07-12T20:04:09.654Z,17.84
2023-07-12T20:06:36.729Z,17.79
2023-07-12T20:09:04.443Z,17.75
2023-07-12T20:11:31.468Z,17.70
2023-07-12T20:13:58.669Z,17.69
2023-07-12T20:16:28.517Z,17.61
2023-07-12T20:18:56.287Z,17.54
2023-07-12T20:21:23.970Z,17.51
2023-07-12T20:23:52.700Z,17.48
2023-07-12T20:26:22.811Z,17.45
2023-07-12T20:28:51.041Z,17.37
2023-07-12T20:31:19.500Z,17.34
2023-07-12T20:33:47.155Z,17.25
2023-07-12T20:36:15.485Z,17.17
2023-07-12T20:38:42.775Z,17.13
2023-07-12T20:41:10.259Z,17.07
2023-07-12T20:43:39.487Z,16.98
2023-07-12T20:46:08.230Z,16.90
2023-07-12T20:48:37.090Z,16.87
2023-07-12T20:51:11.365Z,16.82
2023-07-12T20:53:39.400Z,16.76
2023-07-12T20:56:06.312Z,16.71
2023-07-12T20:58:33.534Z,16.66
2023-07-12T21:01:12.477Z,16.61
2023-07-12T21:03:39.717Z,16.57
2023-07-12T21:06:06.945Z,16.55
2023-07-12T21:08:35.207Z,16.54
2023-07-12T21:11:03.508Z,16.55
2023-07-12T21:13:31.182Z,16.54
2023-07-12T21:16:02.097Z,16.51
2023-07-12T21:18:29.404Z,16.45
2023-07-12T21:20:56.834Z,16.41
2023-07-12T21:23:25.921Z,16.35
2023-07-12T21:25:53.151Z,16.25
2023-07-12T21:28:20.188Z,16.17
2023-07-12T21:30:49.803Z,16.12
2023-07-12T21:33:17.590Z,16.08
2023-07-12T21:35:53.612Z,16.02
2023-07-12T21:38:21.675Z,15.97
2023-07-12T21:40:49.041Z,15.95
2023-07-12T21:43:17.309Z,15.89
2023-07-12T21:45:44.441Z,15.87
2023-07-12T21:48:11.888Z,15.80
2023-07-12T21:50:41.253Z,15.77
2023-07-12T21:53:08.549Z,15.72
2023-07-12T21:55:35.558Z,15.67
2023-07-12T21:58:02.665Z,15.60
2023-07-12T22:00:29.855Z,15.59
2023-07-12T22:02:57.341Z,15.51
2023-07-12T22:05:24.839Z,15.45
2023-07-12T22:07:55.312Z,15.39
2023-07-12T22:10:27.013Z,15.33
2023-07-12T22:12:54.500Z,15.26
2023-07-12T22:15:22.298Z,15.23
2023-07-12T22:17:49.571Z,15.18
2023-07-12T22:20:19.481Z,15.16
2023-07-12T22:22:47.858Z,15.12
2023-07-12T22:25:18.363Z,15.06
2023-07-12T22:27:46.359Z,15.05
2023-07-12T22:30:32.531Z,15.03
2023-07-12T22:33:00.081Z,15.05
2023-07-12T22:35:28.187Z,15.03
2023-07-12T22:37:56.306Z,15.03
2023-07-12T22:40:24.035Z,15.04
2023-07-12T22:42:51.630Z,15.04
2023-07-12T22:45:19.192Z,15.03
2023-07-12T22:47:46.207Z,15.02
2023-07-12T22:50:14.131Z,14.99
2023-07-12T22:52:42.272Z,15.01
2023-07-12T22:55:10.359Z,15.01
2023-07-12T22:57:37.483Z,14.99
2023-07-12T23:00:05.668Z,14.96
2023-07-12T23:02:33.087Z,14.95
2023-07-12T23:05:00.131Z,14.94
2023-07-12T23:07:27.530Z,14.95
2023-07-12T23:09:55.015Z,14.92
2023-07-12T23:12:22.292Z,14.89
2023-07-12T23:14:49.524Z,14.88
2023-07-12T23:17:16.613Z,14.88
2023-07-12T23:19:43.766Z,14.85
2023-07-12T23:22:18.991Z,14.85
2023-07-12T23:24:47.587Z,14.84
2023-07-12T23:27:14.551Z,14.87
2023-07-12T23:29:44.335Z,14.91
2023-07-12T23:32:13.367Z,14.91
2023-07-12T23:34:40.505Z,14.90
2023-07-12T23:37:12.406Z,14.91
2023-07-12T23:39:40.384Z,14.91
2023-07-12T23:42:08.805Z,14.88
2023-07-12T23:44:35.979Z,14.83
2023-07-12T23:47:06.503Z,14.68
2023-07-12T23:49:34.100Z,14.55
2023-07-12T23:52:01.720Z,14.46
2023-07-12T23:54:30.076Z,14.41
2023-07-12T23:56:59.228Z,14.38
2023-07-12T23:59:27.286Z,14.31
